createdAt,value
2022-11-09T00:00:07.766Z,14.70
2022-11-09T00:02:54.725Z,14.70
2022-11-09T00:05:32.482Z,14.50
2022-11-09T00:13:11.374Z,14.50
2022-11-09T00:15:43.395Z,14.70
2022-11-09T00:18:22.015Z,14.50
2022-11-09T00:20:57.914Z,14.60
2022-11-09T00:23:38.705Z,14.80
2022-11-09T00:26:13.225Z,14.70
2022-11-09T00:28:45.021Z,14.70
2022-11-09T00:33:56.568Z,14.80
2022-11-09T00:36:26.009Z,14.80
2022-11-09T00:38:56.726Z,14.80
2022-11-09T00:41:26.669Z,14.70
2022-11-09T00:43:54.616Z,14.60
2022-11-09T00:46:22.516Z,14.60
2022-11-09T00:48:50.191Z,14.70
2022-11-09T00:53:58.726Z,14.60
2022-11-09T00:56:26.662Z,14.30
2022-11-09T00:58:55.852Z,14.40
2022-11-09T01:01:24.042Z,14.40
2022-11-09T01:03:52.358Z,14.50
2022-11-09T01:06:23.548Z,14.50
2022-11-09T01:08:51.988Z,14.50
2022-11-09T01:11:23.557Z,14.70
2022-11-09T01:18:12.417Z,14.50
2022-11-09T01:20:41.995Z,14.50
2022-11-09T01:23:09.927Z,14.40
2022-11-09T01:25:47.755Z,14.30
2022-11-09T01:28:16.834Z,14.30
2022-11-09T01:30:44.783Z,14.30
2022-11-09T01:33:14.084Z,14.40
2022-11-09T01:35:41.945Z,14.30
2022-11-09T01:43:29.945Z,14.00
2022-11-09T01:46:01.876Z,14.20
2022-11-09T01:48:35.403Z,14.10
2022-11-09T01:51:08.474Z,14.00
2022-11-09T01:53:45.037Z,13.90
2022-11-09T01:56:15.395Z,14.10
2022-11-09T01:58:51.185Z,14.30
2022-11-09T02:06:31.184Z,14.50
2022-11-09T02:09:07.545Z,14.40
2022-11-09T02:11:37.256Z,14.30
2022-11-09T02:14:05.896Z,14.20
2022-11-09T02:16:34.357Z,14.30
2022-11-09T02:19:02.274Z,14.30
2022-11-09T02:21:32.013Z,14.20
2022-11-09T02:23:59.926Z,14.10
2022-11-09T02:31:39.725Z,14.30
2022-11-09T02:34:12.820Z,14.40
2022-11-09T02:36:40.081Z,14.50
2022-11-09T02:39:07.627Z,14.30
2022-11-09T02:41:42.265Z,13.80
2022-11-09T02:44:10.363Z,13.70
2022-11-09T02:46:39.221Z,13.60
2022-11-09T02:54:58.726Z,13.70
2022-11-09T02:57:25.976Z,13.20
2022-11-09T02:59:54.068Z,13.50
2022-11-09T03:02:21.531Z,13.60
2022-11-09T03:04:48.788Z,13.60
2022-11-09T03:07:16.211Z,13.50
2022-11-09T03:09:43.616Z,13.40
2022-11-09T03:12:30.437Z,13.50
2022-11-09T03:17:43.935Z,13.40
2022-11-09T03:20:14.105Z,13.30
2022-11-09T03:22:41.666Z,13.40
2022-11-09T03:25:18.433Z,13.50
2022-11-09T03:27:45.328Z,13.40
2022-11-09T03:33:47.646Z,13.50
2022-11-09T03:36:34.216Z,13.70
2022-11-09T03:39:01.668Z,13.70
2022-11-09T03:41:29.168Z,13.60
2022-11-09T03:51:24.420Z,13.80
2022-11-09T03:53:52.017Z,13.60
2022-11-09T03:56:19.536Z,13.50
2022-11-09T03:58:47.327Z,13.50
2022-11-09T04:01:14.737Z,13.70
2022-11-09T04:03:42.722Z,13.40
2022-11-09T04:06:10.208Z,13.40
2022-11-09T04:08:38.418Z,13.40
2022-11-09T04:16:12.356Z,13.30
2022-11-09T04:18:39.768Z,13.40
2022-11-09T04:21:07.508Z,13.50
2022-11-09T04:23:34.820Z,13.50
2022-11-09T04:26:02.389Z,13.40
2022-11-09T04:28:31.508Z,13.40
2022-11-09T04:31:01.278Z,13.50
2022-11-09T04:33:29.867Z,13.50
2022-11-09T04:43:55.610Z,13.60
2022-11-09T04:46:26.010Z,13.60
2022-11-09T04:49:03.127Z,13.30
2022-11-09T04:51:44.857Z,13.40
2022-11-09T04:54:19.660Z,13.60
2022-11-09T04:57:04.670Z,13.50
2022-11-09T04:59:38.647Z,13.50
2022-11-09T05:02:12.749Z,13.60
2022-11-09T05:04:43.699Z,13.60
2022-11-09T05:07:15.654Z,13.40
2022-11-09T05:09:46.101Z,13.40
2022-11-09T05:15:01.358Z,13.40
2022-11-09T05:17:28.786Z,13.30
2022-11-09T05:19:56.206Z,13.40
2022-11-09T05:22:41.439Z,13.30
2022-11-09T05:25:09.571Z,13.30
2022-11-09T05:27:38.337Z,13.30
2022-11-09T05:30:08.730Z,13.10
2022-11-09T05:35:16.657Z,13.20
2022-11-09T05:37:47.558Z,13.10
2022-11-09T05:40:17.009Z,13.10
2022-11-09T05:42:44.938Z,13.20
2022-11-09T05:45:44.216Z,13.10
2022-11-09T05:48:03.906Z,13.30
2022-11-09T05:50:32.967Z,13.20
2022-11-09T05:53:02.725Z,13.40
2022-11-09T06:00:36.589Z,13.30
2022-11-09T06:03:05.175Z,13.30
2022-11-09T06:05:33.689Z,13.10
2022-11-09T06:08:03.987Z,13.10
2022-11-09T06:10:31.909Z,13.10
2022-11-09T06:12:59.359Z,13.40
2022-11-09T06:15:26.808Z,13.70
2022-11-09T06:31:08.218Z,13.70
2022-11-09T06:34:03.868Z,13.40
2022-11-09T06:36:34.081Z,13.70
2022-11-09T06:39:50.100Z,13.90
2022-11-09T06:42:25.816Z,13.90
2022-11-09T06:45:06.078Z,14.00
2022-11-09T06:53:38.951Z,14.10
2022-11-09T06:56:24.087Z,13.80
2022-11-09T06:59:06.249Z,13.80
2022-11-09T07:01:43.156Z,13.90
2022-11-09T07:04:20.257Z,14.00
2022-11-09T07:11:52.758Z,14.10
2022-11-09T07:14:23.069Z,13.70
2022-11-09T07:16:50.441Z,13.50
2022-11-09T07:19:18.379Z,13.30
2022-11-09T07:21:46.069Z,13.30
2022-11-09T07:24:13.787Z,13.50
2022-11-09T07:26:45.609Z,13.50
2022-11-09T07:29:14.369Z,13.30
2022-11-09T07:36:44.240Z,13.40
2022-11-09T07:39:12.820Z,13.60
2022-11-09T07:41:40.958Z,13.70
2022-11-09T07:44:08.427Z,13.50
2022-11-09T07:46:36.337Z,13.40
2022-11-09T07:49:03.708Z,13.50
2022-11-09T07:51:31.310Z,13.30
2022-11-09T07:56:38.770Z,13.50
2022-11-09T07:59:06.779Z,13.80
2022-11-09T08:01:37.701Z,13.70
2022-11-09T08:04:05.674Z,13.70
2022-11-09T08:06:33.179Z,13.70
2022-11-09T08:09:00.366Z,13.60
2022-11-09T08:11:27.916Z,13.70
2022-11-09T08:21:56.717Z,13.90
2022-11-09T08:24:24.285Z,13.70
2022-11-09T08:26:52.185Z,13.70
2022-11-09T08:29:19.775Z,13.70
2022-11-09T08:31:51.577Z,13.60
2022-11-09T08:34:33.978Z,13.70
2022-11-09T08:37:02.387Z,13.70
2022-11-09T08:39:29.870Z,13.60
2022-11-09T08:47:02.913Z,13.40
2022-11-09T08:49:32.187Z,13.00
2022-11-09T08:51:59.417Z,13.10
2022-11-09T08:54:28.935Z,13.20
2022-11-09T08:56:56.710Z,13.30
2022-11-09T08:59:24.817Z,13.10
2022-11-09T09:01:52.265Z,13.20
2022-11-09T09:04:21.177Z,13.30
2022-11-09T09:09:29.858Z,13.40
2022-11-09T09:11:57.501Z,13.20
2022-11-09T09:14:25.707Z,13.30
2022-11-09T09:16:53.526Z,13.40
2022-11-09T09:19:21.752Z,13.60
2022-11-09T09:21:50.174Z,13.60
2022-11-09T09:24:17.518Z,13.70
2022-11-09T09:26:46.464Z,13.60
2022-11-09T09:34:14.967Z,13.30
2022-11-09T09:36:47.719Z,13.50
2022-11-09T09:39:15.901Z,13.50
2022-11-09T09:41:53.178Z,13.70
2022-11-09T09:44:29.658Z,13.80
2022-11-09T09:47:07.645Z,14.00
2022-11-09T09:49:40.472Z,14.20
2022-11-09T09:54:57.038Z,14.20
2022-11-09T09:57:26.981Z,13.90
2022-11-09T09:59:59.295Z,14.10
2022-11-09T10:02:28.604Z,13.90
2022-11-09T10:04:58.859Z,13.90
2022-11-09T10:07:30.517Z,14.00
2022-11-09T10:10:37.506Z,14.10
2022-11-09T10:18:33.967Z,14.30
2022-11-09T10:21:21.691Z,14.50
2022-11-09T10:24:00.686Z,14.50
2022-11-09T10:26:36.924Z,14.50
2022-11-09T10:29:20.187Z,14.60
2022-11-09T10:31:49.305Z,14.70
2022-11-09T10:34:21.187Z,14.80
2022-11-09T10:42:14.685Z,14.80
2022-11-09T10:44:42.278Z,14.60
2022-11-09T10:47:17.596Z,14.60
2022-11-09T10:50:40.979Z,14.70
2022-11-09T10:53:54.376Z,14.70
2022-11-09T10:56:37.210Z,14.80
2022-11-09T10:59:54.859Z,14.80
2022-11-09T11:03:10.407Z,14.60
2022-11-09T11:05:41.080Z,14.80
2022-11-09T11:13:26.706Z,14.80
2022-11-09T11:15:54.226Z,14.90
2022-11-09T11:18:24.897Z,15.00
2022-11-09T11:21:18.634Z,14.90
2022-11-09T11:24:11.314Z,14.90
2022-11-09T11:26:44.395Z,15.10
2022-11-09T11:29:24.616Z,15.20
2022-11-09T11:31:53.085Z,15.20
2022-11-09T11:40:19.663Z,14.70
2022-11-09T11:46:32.602Z,15.00
2022-11-09T11:49:46.275Z,14.90
2022-11-09T11:52:54.583Z,14.60
2022-11-09T11:56:00.858Z,14.60
2022-11-09T12:01:54.484Z,14.80
2022-11-09T12:04:50.980Z,14.80
2022-11-09T12:07:32.187Z,14.50
2022-11-09T12:10:27.928Z,14.60
2022-11-09T12:13:04.212Z,14.90
2022-11-09T12:15:45.805Z,15.20
2022-11-09T12:21:04.761Z,15.10
2022-11-09T12:23:46.337Z,15.10
2022-11-09T12:26:24.483Z,15.20
2022-11-09T12:29:07.869Z,15.10
2022-11-09T12:31:47.317Z,15.10
2022-11-09T12:34:22.638Z,15.10
2022-11-09T12:36:56.068Z,15.30
2022-11-09T12:44:54.746Z,15.20
2022-11-09T12:47:46.060Z,15.40
2022-11-09T12:50:15.889Z,15.40
2022-11-09T12:52:47.500Z,15.40
2022-11-09T12:55:22.360Z,15.40
2022-11-09T12:57:56.955Z,15.40
2022-11-09T13:00:50.013Z,15.20
2022-11-09T13:03:25.818Z,15.30
2022-11-09T13:12:47.238Z,15.50
2022-11-09T13:15:26.969Z,15.30
2022-11-09T13:17:59.778Z,15.40
2022-11-09T13:21:00.687Z,15.50
2022-11-09T13:23:59.441Z,15.60
2022-11-09T13:26:25.787Z,15.60
2022-11-09T13:29:09.941Z,15.50
2022-11-09T13:32:04.218Z,15.40
2022-11-09T13:43:14.949Z,15.20
2022-11-09T13:45:47.679Z,15.10
2022-11-09T13:48:34.577Z,14.90
2022-11-09T13:51:16.788Z,14.90
2022-11-09T13:54:07.797Z,15.10
2022-11-09T13:56:56.940Z,15.20
2022-11-09T13:59:29.579Z,15.40
2022-11-09T14:10:28.435Z,15.40
2022-11-09T14:16:05.017Z,15.00
2022-11-09T14:18:45.207Z,15.10
2022-11-09T14:21:37.645Z,15.10
2022-11-09T14:24:30.600Z,15.20
2022-11-09T14:27:22.847Z,15.20
2022-11-09T14:37:26.038Z,15.40
2022-11-09T14:39:59.157Z,15.20
2022-11-09T14:42:47.659Z,15.00
2022-11-09T14:45:20.420Z,15.10
2022-11-09T14:47:55.666Z,15.00
2022-11-09T14:50:41.568Z,14.80
2022-11-09T14:53:26.589Z,14.90
2022-11-09T14:56:04.976Z,15.00
2022-11-09T15:01:24.437Z,15.10
2022-11-09T15:04:10.893Z,14.90
2022-11-09T15:06:48.343Z,14.90
2022-11-09T15:09:18.259Z,14.80
2022-11-09T15:11:46.350Z,15.00
2022-11-09T15:14:16.760Z,14.90
2022-11-09T15:16:48.469Z,14.90
2022-11-09T15:22:45.900Z,14.90
2022-11-09T15:25:23.077Z,14.70
2022-11-09T15:28:00.409Z,14.60
2022-11-09T15:30:32.527Z,14.40
2022-11-09T15:33:01.898Z,14.50
2022-11-09T15:35:29.070Z,14.70
2022-11-09T15:37:57.139Z,14.60
2022-11-09T15:45:29.357Z,14.30
2022-11-09T15:47:57.327Z,14.40
2022-11-09T15:50:27.177Z,14.20
2022-11-09T15:52:54.567Z,14.10
2022-11-09T15:55:27.168Z,14.30
2022-11-09T15:58:20.076Z,14.20
2022-11-09T16:00:57.076Z,14.30
2022-11-09T16:09:01.639Z,14.40
2022-11-09T16:11:29.490Z,14.60
2022-11-09T16:14:03.874Z,14.70
2022-11-09T16:16:34.010Z,14.90
2022-11-09T16:19:01.799Z,14.90
2022-11-09T16:21:43.028Z,14.90
2022-11-09T16:24:23.169Z,14.80
2022-11-09T16:32:01.166Z,14.70
2022-11-09T16:34:32.515Z,14.70
2022-11-09T16:36:59.566Z,14.70
2022-11-09T16:39:27.480Z,14.50
2022-11-09T16:41:56.569Z,14.50
2022-11-09T16:44:28.708Z,14.60
2022-11-09T16:46:59.587Z,14.50
2022-11-09T16:54:09.437Z,14.30
2022-11-09T16:56:36.906Z,14.00
2022-11-09T16:59:04.587Z,13.90
2022-11-09T17:01:31.962Z,14.00
2022-11-09T17:04:02.039Z,14.10
2022-11-09T17:06:29.884Z,14.10
2022-11-09T17:09:02.952Z,14.10
2022-11-09T17:11:40.016Z,13.80
2022-11-09T17:19:00.546Z,14.00
2022-11-09T17:21:29.804Z,13.90
2022-11-09T17:24:04.039Z,13.90
2022-11-09T17:26:37.901Z,14.00
2022-11-09T17:29:06.630Z,14.00
2022-11-09T17:31:34.311Z,14.30
2022-11-09T17:34:06.413Z,14.20
2022-11-09T17:39:36.080Z,14.10
2022-11-09T17:42:04.580Z,14.20
2022-11-09T17:44:36.400Z,14.50
2022-11-09T17:47:16.146Z,14.50
2022-11-09T17:49:46.703Z,14.30
2022-11-09T17:52:13.909Z,14.40
2022-11-09T17:54:50.830Z,14.40
2022-11-09T18:02:46.968Z,13.80
2022-11-09T18:05:30.660Z,13.70
2022-11-09T18:07:57.888Z,13.90
2022-11-09T18:10:25.721Z,13.80
2022-11-09T18:12:55.540Z,13.60
2022-11-09T18:15:27.987Z,13.60
2022-11-09T18:17:59.901Z,13.70
2022-11-09T18:25:43.427Z,13.90
2022-11-09T18:28:22.966Z,13.50
2022-11-09T18:31:08.365Z,13.70
2022-11-09T18:33:36.291Z,13.60
2022-11-09T18:36:07.158Z,13.60
2022-11-09T18:38:35.104Z,13.30
2022-11-09T18:41:29.438Z,13.20
2022-11-09T18:49:13.937Z,13.00
2022-11-09T18:51:43.468Z,13.30
2022-11-09T18:54:12.011Z,13.10
2022-11-09T18:56:40.601Z,12.80
2022-11-09T18:59:10.801Z,12.80
2022-11-09T19:01:46.328Z,12.80
2022-11-09T19:04:17.498Z,12.70
2022-11-09T19:11:49.640Z,12.50
2022-11-09T19:14:17.398Z,12.30
2022-11-09T19:17:01.745Z,12.30
2022-11-09T19:19:29.782Z,12.30
2022-11-09T19:22:15.490Z,12.20
2022-11-09T19:24:51.053Z,12.30
2022-11-09T19:27:28.660Z,12.30
2022-11-09T19:29:56.991Z,12.20
2022-11-09T19:37:33.442Z,12.20
2022-11-09T19:40:05.122Z,12.30
2022-11-09T19:42:37.328Z,12.20
2022-11-09T19:45:06.872Z,12.20
2022-11-09T19:47:55.832Z,12.30
2022-11-09T19:50:27.729Z,12.10
2022-11-09T19:52:56.996Z,12.10
2022-11-09T19:58:14.142Z,12.00
2022-11-09T20:00:42.537Z,12.00
2022-11-09T20:03:11.168Z,12.00
2022-11-09T20:05:41.031Z,12.20
2022-11-09T20:08:08.552Z,12.30
2022-11-09T20:10:37.545Z,12.20
2022-11-09T20:13:04.510Z,11.90
2022-11-09T20:15:33.340Z,11.90
2022-11-09T20:23:21.433Z,11.80
2022-11-09T20:25:50.157Z,11.90
2022-11-09T20:28:22.856Z,12.00
2022-11-09T20:30:52.001Z,11.90
2022-11-09T20:33:20.982Z,11.90
2022-11-09T20:35:52.929Z,11.80
2022-11-09T20:38:22.161Z,11.70
2022-11-09T20:40:56.822Z,11.70
2022-11-09T20:47:06.218Z,11.60
2022-11-09T20:49:33.591Z,11.50
2022-11-09T20:52:03.220Z,11.50
2022-11-09T20:54:34.160Z,11.30
2022-11-09T20:57:01.724Z,11.40
2022-11-09T20:59:29.460Z,11.40
2022-11-09T21:01:58.099Z,11.60
2022-11-09T21:12:24.500Z,11.30
2022-11-09T21:14:59.178Z,11.30
2022-11-09T21:17:48.209Z,11.20
2022-11-09T21:20:33.687Z,11.10
2022-11-09T21:23:22.202Z,11.10
2022-11-09T21:26:07.507Z,11.10
2022-11-09T21:28:53.750Z,11.10
2022-11-09T21:31:21.431Z,11.10
2022-11-09T21:38:55.953Z,11.30
2022-11-09T21:41:38.407Z,11.10
2022-11-09T21:44:07.775Z,11.00
2022-11-09T21:46:35.996Z,11.20
2022-11-09T21:49:04.495Z,11.30
2022-11-09T21:51:35.269Z,11.20
2022-11-09T21:54:04.661Z,11.30
2022-11-09T22:00:37.861Z,11.10
2022-11-09T22:03:04.940Z,11.00
2022-11-09T22:05:32.311Z,10.90
2022-11-09T22:07:59.860Z,10.80
2022-11-09T22:10:27.321Z,10.80
2022-11-09T22:13:12.491Z,10.80
2022-11-09T22:15:58.590Z,10.70
2022-11-09T22:18:47.273Z,10.80
2022-11-09T22:26:17.650Z,10.70
2022-11-09T22:28:45.740Z,10.60
2022-11-09T22:31:13.760Z,10.70
2022-11-09T22:33:40.992Z,10.70
2022-11-09T22:36:10.805Z,10.70
2022-11-09T22:38:38.439Z,10.40
2022-11-09T22:41:11.840Z,10.50
2022-11-09T22:43:41.809Z,10.50
2022-11-09T22:51:14.591Z,10.40
2022-11-09T22:53:42.577Z,10.60
2022-11-09T22:56:11.246Z,10.70
2022-11-09T22:58:38.620Z,10.70
2022-11-09T23:01:09.302Z,10.60
2022-11-09T23:03:36.710Z,10.40
2022-11-09T23:06:05.799Z,10.50
2022-11-09T23:08:38.060Z,10.60
2022-11-09T23:16:24.420Z,11.00
2022-11-09T23:18:57.049Z,11.20
2022-11-09T23:21:29.418Z,11.00
2022-11-09T23:24:37.868Z,10.90
2022-11-09T23:27:05.317Z,10.90
2022-11-09T23:29:32.699Z,10.90
2022-11-09T23:32:01.391Z,11.00
2022-11-09T23:39:34.148Z,11.20
2022-11-09T23:42:01.591Z,10.80
2022-11-09T23:44:28.887Z,10.60
2022-11-09T23:46:56.242Z,10.50
2022-11-09T23:49:23.548Z,10.60
2022-11-09T23:51:50.924Z,10.60
2022-11-09T23:54:18.160Z,10.40
